Time;durP1;ratioP1;P1;durP2;ratioP2;P2;SDS_P1;SDS_P2;PMS_P1;PMS_P2;Temp;Humidity;BMP_temperature;BMP_pressure;BME280_temperature;BME280_humidity;BME280_pressure;Samples;Min_cycle;Max_cycle;Signal;HPM_P1;HPM_P2
2022/04/08 17:20:34;;;;;;;;;3.50;3.25;;;;;4.95;100.00;99532.50;5098012;27;45520;-79
2022/04/08 17:23:00;;;;;;;;;2.00;2.00;;;;;5.08;100.00;99521.13;5077571;27;45420;-76
2022/04/08 17:25:26;;;;;;;;;4.75;4.75;;;;;5.25;100.00;99522.75;5073764;28;45239;-77
2022/04/08 17:27:52;;;;;;;;;6.00;6.00;;;;;5.39;100.00;99513.13;5084489;27;45535;-81
2022/04/08 17:30:18;;;;;;;;;2.75;2.75;;;;;5.66;100.00;99532.25;5086639;27;45322;-77
2022/04/08 17:32:43;;;;;;;;;1.50;1.50;;;;;5.86;100.00;99535.66;5074605;28;45496;-78
2022/04/08 17:35:10;;;;;;;;;2.00;2.00;;;;;6.03;100.00;99546.69;5074012;28;45426;-77
2022/04/08 17:37:36;;;;;;;;;3.00;3.00;;;;;6.15;100.00;99556.63;5073894;27;45319;-84
2022/04/08 17:40:03;;;;;;;;;4.00;4.00;;;;;6.23;100.00;99564.63;5076668;27;45947;-77
2022/04/08 17:42:35;;;;;;;;;3.00;2.00;;;;;6.24;100.00;99554.44;5079547;27;45459;-77
2022/04/08 17:45:01;;;;;;;;;2.00;2.00;;;;;6.42;100.00;99566.28;5075680;27;45401;-79
2022/04/08 17:47:27;;;;;;;;;2.00;2.00;;;;;6.41;100.00;99552.56;5072462;28;45437;-78
2022/04/08 17:49:53;;;;;;;;;2.25;2.25;;;;;6.47;100.00;99547.66;5072920;28;46078;-78
2022/04/08 17:52:19;;;;;;;;;3.00;3.00;;;;;6.57;100.00;99556.66;5073181;27;45756;-81
2022/04/08 17:54:45;;;;;;;;;4.00;2.00;;;;;6.61;100.00;99581.66;5073007;28;45193;-78
2022/04/08 17:57:11;;;;;;;;;2.25;2.00;;;;;6.73;100.00;99590.69;5074626;27;45347;-79
2022/04/08 17:59:37;;;;;;;;;3.50;2.00;;;;;6.77;100.00;99610.59;5072736;28;46085;-77
2022/04/08 18:02:05;;;;;;;;;2.00;2.00;;;;;6.63;100.00;99597.16;5070696;28;45942;-83
2022/04/08 18:04:32;;;;;;;;;1.25;0.25;;;;;6.83;100.00;99623.69;5084295;27;45362;-84
2022/04/08 18:06:58;;;;;;;;;3.50;3.50;;;;;6.78;100.00;99635.50;5094731;27;45526;-86
2022/04/08 18:09:26;;;;;;;;;2.75;2.25;;;;;6.86;100.00;99670.13;5103283;27;46438;-92
2022/04/08 18:11:54;;;;;;;;;3.00;2.00;;;;;6.82;100.00;99691.38;5092955;27;45306;-90
2022/04/08 18:14:20;;;;;;;;;3.75;2.00;;;;;6.67;100.00;99668.47;5079557;27;45446;-85
2022/04/08 18:16:45;;;;;;;;;6.00;4.00;;;;;6.85;100.00;99700.94;5075048;28;45823;-80
2022/04/08 18:19:11;;;;;;;;;3.25;3.00;;;;;6.77;100.00;99673.19;5079218;27;46380;-79
2022/04/08 18:21:37;;;;;;;;;4.25;3.00;;;;;6.79;100.00;99699.00;5094983;27;45323;-83
2022/04/08 18:24:03;;;;;;;;;3.75;3.50;;;;;6.72;100.00;99704.66;5089726;27;45346;-78
2022/04/08 18:26:29;;;;;;;;;6.75;5.25;;;;;6.61;100.00;99710.25;5092221;27;45582;-81
2022/04/08 18:28:55;;;;;;;;;3.50;3.00;;;;;6.69;100.00;99744.00;5093278;27;45609;-82
2022/04/08 18:31:20;;;;;;;;;4.00;3.00;;;;;6.70;100.00;99763.78;5085728;27;45248;-83
2022/04/08 18:33:46;;;;;;;;;6.50;3.00;;;;;6.61;100.00;99765.97;5093365;27;45223;-85
2022/04/08 18:36:12;;;;;;;;;4.00;4.00;;;;;6.64;100.00;99772.09;5059754;27;45613;-79
2022/04/08 18:38:39;;;;;;;;;4.00;3.75;;;;;6.74;100.00;99798.22;5077075;28;45425;-82
2022/04/08 18:41:05;;;;;;;;;6.75;4.75;;;;;6.67;100.00;99802.22;5077949;27;45417;-83
2022/04/08 18:43:33;;;;;;;;;4.00;4.00;;;;;6.53;100.00;99799.03;5061311;28;45377;-77
2022/04/08 18:45:59;;;;;;;;;6.00;6.00;;;;;6.66;100.00;99851.91;5079119;27;45495;-82
2022/04/08 18:48:26;;;;;;;;;3.25;2.50;;;;;6.63;100.00;99859.50;5078572;28;46393;-79
2022/04/08 18:50:51;;;;;;;;;4.50;3.75;;;;;6.63;100.00;99862.06;5094673;27;45551;-79
2022/04/08 18:53:17;;;;;;;;;4.00;4.00;;;;;6.69;100.00;99885.47;5083197;27;45350;-84
2022/04/08 18:55:43;;;;;;;;;9.50;7.25;;;;;6.55;100.00;99872.00;5084704;27;45302;-79
2022/04/08 18:58:08;;;;;;;;;4.75;4.25;;;;;6.68;100.00;99904.28;5096330;27;45990;-81
2022/04/08 19:00:34;;;;;;;;;9.00;6.00;;;;;6.62;100.00;99902.31;5092802;27;45260;-81
2022/04/08 19:03:00;;;;;;;;;9.25;8.00;;;;;6.66;100.00;99901.66;5082840;27;45509;-80
2022/04/08 19:05:26;;;;;;;;;9.00;7.25;;;;;6.67;100.00;99897.38;5074696;27;45530;-78
2022/04/08 19:07:51;;;;;;;;;7.75;7.50;;;;;6.79;100.00;99928.81;5093927;27;45791;-79
2022/04/08 19:10:18;;;;;;;;;8.25;8.25;;;;;6.88;100.00;99940.34;5077990;28;45413;-78
2022/04/08 19:12:44;;;;;;;;;10.25;9.00;;;;;6.90;100.00;99949.91;5077095;27;45268;-78
2022/04/08 19:15:11;;;;;;;;;8.75;8.00;;;;;6.80;100.00;99935.72;5076608;28;45309;-78
2022/04/08 19:17:38;;;;;;;;;9.00;7.50;;;;;6.95;100.00;99969.00;5075670;27;45407;-77
2022/04/08 19:20:04;;;;;;;;;9.25;8.75;;;;;6.92;100.00;99974.00;5072632;28;45989;-76
2022/04/08 19:22:30;;;;;;;;;5.25;5.25;;;;;6.99;100.00;99990.59;5077334;27;45475;-76
2022/04/08 19:24:56;;;;;;;;;7.75;7.75;;;;;6.74;100.00;99956.03;5077639;27;45607;-77
2022/04/08 19:27:21;;;;;;;;;6.00;5.00;;;;;6.81;100.00;99968.38;5077181;28;45477;-77
2022/04/08 19:29:47;;;;;;;;;8.50;8.00;;;;;6.89;100.00;99981.59;5081336;27;45265;-78
2022/04/08 19:32:13;;;;;;;;;9.00;7.75;;;;;7.09;100.00;100020.22;5081291;27;46566;-76
2022/04/08 19:34:40;;;;;;;;;8.25;8.00;;;;;7.20;100.00;100049.03;5076620;27;45586;-75
2022/04/08 19:37:06;;;;;;;;;11.00;9.00;;;;;7.23;100.00;100052.66;5077495;28;46255;-75
2022/04/08 19:39:34;;;;;;;;;8.00;7.75;;;;;7.26;100.00;100072.50;5079524;27;45604;-75
2022/04/08 19:42:01;;;;;;;;;10.50;9.25;;;;;7.29;100.00;100088.06;5096700;27;45451;-76
2022/04/08 19:44:27;;;;;;;;;10.00;7.50;;;;;7.32;100.00;100102.78;5098269;27;45456;-75
2022/04/08 19:46:53;;;;;;;;;10.00;7.00;;;;;7.28;100.00;100110.38;5098290;27;45984;-77
2022/04/08 19:49:18;;;;;;;;;7.75;7.75;;;;;7.32;100.00;100121.69;5064099;28;45469;-81
2022/04/08 19:51:44;;;;;;;;;9.75;7.25;;;;;7.36;100.00;100141.63;5077862;28;45265;-79
2022/04/08 19:54:10;;;;;;;;;11.75;10.00;;;;;7.33;100.00;100146.63;5076915;27;45342;-80
2022/04/08 19:56:36;;;;;;;;;7.50;7.25;;;;;7.24;100.00;100139.34;5058133;28;46925;-79
2022/04/08 19:59:02;;;;;;;;;9.50;8.00;;;;;7.26;100.00;100149.72;5076231;28;46072;-80
2022/04/08 20:01:28;;;;;;;;;10.00;9.00;;;;;7.04;100.00;100124.66;5076715;28;45430;-79
2022/04/08 20:03:54;;;;;;;;;11.00;9.00;;;;;7.26;100.00;100178.91;5077336;28;45518;-80
2022/04/08 20:06:19;;;;;;;;;10.00;9.00;;;;;7.23;100.00;100196.81;5075994;28;45413;-79
2022/04/08 20:08:48;;;;;;;;;7.50;6.25;;;;;7.18;100.00;100193.13;5082891;27;45458;-79
2022/04/08 20:11:14;;;;;;;;;11.00;10.00;;;;;7.35;100.00;100237.72;5078017;27;45180;-78
2022/04/08 20:13:41;;;;;;;;;11.25;11.00;;;;;7.29;100.00;100227.09;5077514;27;45394;-78
2022/04/08 20:16:08;;;;;;;;;13.75;11.50;;;;;7.36;100.00;100251.47;5080050;27;45366;-79
2022/04/08 20:18:36;;;;;;;;;11.50;11.50;;;;;7.32;100.00;100255.59;5059696;27;46018;-80
2022/04/08 20:21:02;;;;;;;;;12.50;12.50;;;;;7.22;100.00;100253.38;5057482;28;45469;-79
2022/04/08 20:23:28;;;;;;;;;13.50;11.25;;;;;7.22;100.00;100271.38;5076489;28;45390;-79
2022/04/08 20:25:54;;;;;;;;;14.00;12.75;;;;;7.22;100.00;100272.28;5076667;28;45455;-79
2022/04/08 20:28:19;;;;;;;;;13.50;12.25;;;;;7.05;100.00;100256.00;5076031;28;45441;-80
2022/04/08 20:30:46;;;;;;;;;10.50;10.00;;;;;7.00;100.00;100241.13;5058042;28;45446;-80
2022/04/08 20:33:12;;;;;;;;;14.25;11.50;;;;;7.00;100.00;100241.13;5076145;28;45536;-80
2022/04/08 20:35:38;;;;;;;;;13.00;9.75;;;;;7.02;100.00;100261.00;5078240;27;45484;-79
2022/04/08 20:38:05;;;;;;;;;11.00;10.00;;;;;7.20;100.00;100296.16;5075661;28;45458;-78
2022/04/08 20:40:30;;;;;;;;;12.25;9.75;;;;;7.13;100.00;100298.44;5076293;27;45536;-78
2022/04/08 20:42:57;;;;;;;;;15.75;11.50;;;;;7.00;100.00;100283.19;5076168;28;45531;-78
2022/04/08 20:45:24;;;;;;;;;11.75;10.00;;;;;6.98;100.00;100282.22;5076363;28;46506;-78
2022/04/08 20:47:50;;;;;;;;;12.50;10.00;;;;;7.05;100.00;100315.22;5082751;28;45797;-80
2022/04/08 20:50:15;;;;;;;;;8.50;8.50;;;;;7.08;100.00;100324.78;5061030;28;45307;-79
2022/04/08 20:52:42;;;;;;;;;10.75;9.00;;;;;7.05;100.00;100335.81;5077322;28;45252;-78
2022/04/08 20:55:09;;;;;;;;;10.00;10.00;;;;;7.04;100.00;100340.84;5076638;28;45414;-79
2022/04/08 20:57:35;;;;;;;;;9.25;9.00;;;;;7.04;100.00;100344.31;5077477;27;45917;-79
2022/04/08 21:00:01;;;;;;;;;8.25;8.00;;;;;6.99;100.00;100348.34;5076383;27;45498;-79
2022/04/08 21:02:26;;;;;;;;;9.00;8.00;;;;;6.87;100.00;100327.09;5077021;28;45586;-79
2022/04/08 21:04:52;;;;;;;;;10.00;8.75;;;;;6.71;100.00;100286.84;5076669;27;45386;-80
2022/04/08 21:07:18;;;;;;;;;12.00;9.75;;;;;7.02;100.00;100361.38;5093882;27;45373;-80
2022/04/08 21:09:43;;;;;;;;;9.75;9.00;;;;;6.97;100.00;100360.22;5091241;27;45697;-79
2022/04/08 21:12:10;;;;;;;;;10.00;9.25;;;;;6.82;100.00;100350.94;5076064;28;45462;-77
2022/04/08 21:14:35;;;;;;;;;10.00;9.00;;;;;6.56;100.00;100317.78;5076517;28;46173;-78
2022/04/08 21:17:02;;;;;;;;;9.00;8.00;;;;;6.96;100.00;100394.53;5095600;27;45362;-78
2022/04/08 21:19:29;;;;;;;;;12.25;9.00;;;;;6.95;100.00;100401.34;5096665;27;45417;-79
2022/04/08 21:21:55;;;;;;;;;12.00;11.00;;;;;6.80;100.00;100385.97;5086263;27;45374;-78
2022/04/08 21:24:21;;;;;;;;;10.00;8.25;;;;;6.82;100.00;100396.34;5072728;27;47102;-79
2022/04/08 21:26:46;;;;;;;;;5.25;5.25;;;;;6.69;100.00;100384.53;5090418;27;45452;-80
2022/04/08 21:29:12;;;;;;;;;9.75;6.50;;;;;6.45;100.00;100356.69;5096142;27;45333;-79
2022/04/08 21:31:41;;;;;;;;;8.75;8.25;;;;;6.58;100.00;100393.34;5079271;27;45154;-79
2022/04/08 21:34:08;;;;;;;;;7.50;7.50;;;;;6.62;100.00;100415.88;5076590;27;45439;-79
2022/04/08 21:36:35;;;;;;;;;9.00;7.50;;;;;6.56;100.00;100421.56;5076040;27;45876;-79
2022/04/08 21:39:04;;;;;;;;;9.25;9.00;;;;;6.40;100.00;100409.56;5060640;27;45396;-80
2022/04/08 21:41:31;;;;;;;;;9.00;9.00;;;;;6.36;100.00;100410.19;5087569;27;45339;-79
2022/04/08 21:43:56;;;;;;;;;9.75;8.00;;;;;6.37;100.00;100421.38;5075903;28;46414;-79
2022/04/08 21:46:22;;;;;;;;;10.50;7.50;;;;;6.31;100.00;100430.50;5079452;27;45449;-77
2022/04/08 21:48:48;;;;;;;;;6.75;6.25;;;;;6.44;100.00;100457.78;5084031;27;45405;-78
2022/04/08 21:51:13;;;;;;;;;7.00;7.00;;;;;6.22;100.00;100430.00;5084665;27;45522;-78
2022/04/08 21:53:39;;;;;;;;;7.00;7.00;;;;;6.06;100.00;100419.63;5077304;27;47758;-78
2022/04/08 21:56:05;;;;;;;;;9.75;8.25;;;;;6.32;100.00;100475.97;5077963;27;45288;-78
2022/04/08 21:58:31;;;;;;;;;12.00;8.75;;;;;6.17;100.00;100455.44;5079169;27;45913;-78
2022/04/08 22:00:58;;;;;;;;;8.50;7.00;;;;;6.09;100.00;100440.38;5096043;27;45515;-78
2022/04/08 22:03:25;;;;;;;;;13.75;10.25;;;;;6.31;100.00;100481.91;5087494;27;46184;-79
2022/04/08 22:05:55;;;;;;;;;8.00;8.00;;;;;6.31;100.00;100488.75;5079837;27;45415;-78
2022/04/08 22:08:25;;;;;;;;;11.25;7.00;;;;;6.35;100.00;100506.13;5080156;27;45548;-78
2022/04/08 22:10:51;;;;;;;;;8.50;8.50;;;;;6.20;100.00;100495.84;5089176;27;45545;-79
2022/04/08 22:13:19;;;;;;;;;9.75;8.00;;;;;6.06;100.00;100492.50;5062705;28;47692;-79
2022/04/08 22:15:45;;;;;;;;;11.25;8.00;;;;;6.17;100.00;100524.84;5075213;27;45951;-78
2022/04/08 22:18:15;;;;;;;;;8.00;8.00;;;;;6.02;100.00;100522.28;5097222;27;45365;-78
2022/04/08 22:20:43;;;;;;;;;8.75;7.50;;;;;6.21;100.00;100558.44;5080894;27;45375;-77
2022/04/08 22:23:10;;;;;;;;;8.00;8.00;;;;;6.15;100.00;100554.69;5078658;28;45527;-79
2022/04/08 22:25:37;;;;;;;;;9.25;8.00;;;;;6.21;100.00;100579.00;5079087;28;45452;-79
2022/04/08 22:28:03;;;;;;;;;7.25;7.25;;;;;5.94;100.00;100533.72;5085576;27;45311;-78
2022/04/08 22:30:29;;;;;;;;;8.50;7.25;;;;;5.98;100.00;100550.25;5094575;27;45284;-78
2022/04/08 22:32:55;;;;;;;;;10.00;8.00;;;;;6.14;100.00;100591.47;5084437;27;45273;-78
2022/04/08 22:35:21;;;;;;;;;9.25;7.75;;;;;6.15;100.00;100597.53;5091330;27;45293;-79
2022/04/08 22:37:47;;;;;;;;;7.00;7.00;;;;;5.96;100.00;100559.53;5081553;27;45313;-78
2022/04/08 22:40:13;;;;;;;;;9.75;7.00;;;;;6.11;100.00;100591.28;5096101;27;45342;-78
2022/04/08 22:42:39;;;;;;;;;9.50;8.00;;;;;6.04;100.00;100576.31;5078891;27;45515;-79
2022/04/08 22:45:07;;;;;;;;;9.75;8.75;;;;;6.17;100.00;100611.34;5081094;27;45326;-79
2022/04/08 22:47:33;;;;;;;;;7.75;7.75;;;;;5.93;100.00;100585.03;5070792;27;45312;-80
2022/04/08 22:49:59;;;;;;;;;12.25;10.25;;;;;6.08;100.00;100614.25;5091115;27;45493;-78
2022/04/08 22:52:25;;;;;;;;;12.00;9.00;;;;;5.74;100.00;100563.38;5079856;28;46182;-79
2022/04/08 22:54:50;;;;;;;;;8.50;8.50;;;;;6.12;100.00;100620.47;5082803;27;45251;-79
2022/04/08 22:57:18;;;;;;;;;13.25;10.25;;;;;6.14;100.00;100639.44;5087900;27;45260;-80
2022/04/08 22:59:46;;;;;;;;;12.75;9.00;;;;;6.08;100.00;100632.25;5075897;27;45293;-79
2022/04/08 23:02:13;;;;;;;;;13.75;11.25;;;;;6.10;100.00;100645.19;5077964;28;45482;-79
2022/04/08 23:04:46;;;;;;;;;10.75;10.25;;;;;6.18;100.00;100665.44;5078542;27;45309;-79
2022/04/08 23:07:12;;;;;;;;;9.00;9.00;;;;;5.95;100.00;100635.72;5079077;27;45438;-79
2022/04/08 23:09:37;;;;;;;;;11.50;8.50;;;;;6.11;100.00;100660.69;5078719;27;45295;-79
2022/04/08 23:12:04;;;;;;;;;12.00;8.00;;;;;6.17;100.00;100678.16;5078448;27;45949;-78
2022/04/08 23:14:32;;;;;;;;;8.50;8.50;;;;;6.16;100.00;100682.44;5094810;27;45337;-78
2022/04/08 23:16:58;;;;;;;;;9.25;6.50;;;;;6.13;100.00;100671.97;5091243;27;45353;-78
2022/04/08 23:19:24;;;;;;;;;6.75;4.00;;;;;6.13;100.00;100666.81;5061536;28;45460;-79
2022/04/08 23:21:52;;;;;;;;;11.50;8.00;;;;;6.03;100.00;100655.13;5067271;27;45456;-78
2022/04/08 23:24:19;;;;;;;;;10.25;8.25;;;;;5.97;100.00;100640.97;5084596;27;45295;-78
2022/04/08 23:26:45;;;;;;;;;7.50;7.50;;;;;6.02;100.00;100645.63;5089089;27;45399;-79
2022/04/08 23:29:10;;;;;;;;;11.00;8.50;;;;;6.33;100.00;100704.03;5100082;27;45485;-78
2022/04/08 23:31:36;;;;;;;;;7.50;7.50;;;;;6.26;100.00;100677.84;5062777;28;47176;-77
2022/04/08 23:34:03;;;;;;;;;7.75;7.50;;;;;6.42;100.00;100702.78;5083122;27;45304;-78
2022/04/08 23:36:30;;;;;;;;;8.00;7.00;;;;;6.34;100.00;100703.22;5078048;27;45279;-78
2022/04/08 23:38:57;;;;;;;;;8.75;8.00;;;;;6.41;100.00;100703.59;5071129;27;45616;-78
2022/04/08 23:41:23;;;;;;;;;9.00;9.00;;;;;6.51;100.00;100718.75;5078371;28;46206;-79
2022/04/08 23:43:50;;;;;;;;;8.00;8.00;;;;;6.53;100.00;100718.88;5077935;28;45416;-79
2022/04/08 23:46:16;;;;;;;;;9.25;8.50;;;;;6.51;100.00;100726.47;5078078;28;45197;-80
2022/04/08 23:48:42;;;;;;;;;11.25;7.00;;;;;6.47;100.00;100717.69;5078134;28;45532;-80
2022/04/08 23:51:08;;;;;;;;;9.25;7.00;;;;;6.57;100.00;100743.97;5077606;28;46070;-79
2022/04/08 23:53:34;;;;;;;;;6.25;5.50;;;;;6.31;100.00;100697.88;5078027;27;45855;-80
2022/04/08 23:55:59;;;;;;;;;9.00;6.25;;;;;6.58;100.00;100748.31;5077858;27;45362;-79
2022/04/08 23:58:25;;;;;;;;;7.25;6.25;;;;;6.52;100.00;100751.41;5082860;27;45319;-78
